sensor_id;sensor_type;location;lat;lon;timestamp;pressure;altitude;pressure_sealevel;temperature;humidity
69971;BME280;57301;50.328;8.542;2023-07-28T00:00:34;97685.63;;;16.26;100.00
69971;BME280;57301;50.328;8.542;2023-07-28T00:03:01;97693.13;;;16.17;100.00
69971;BME280;57301;50.328;8.542;2023-07-28T00:05:28;97686.31;;;16.15;100.00
69971;BME280;57301;50.328;8.542;2023-07-28T00:07:54;97683.63;;;16.15;100.00
69971;BME280;57301;50.328;8.542;2023-07-28T00:10:22;97686.09;;;16.09;100.00
69971;BME280;57301;50.328;8.542;2023-07-28T00:12:49;97681.94;;;16.13;100.00
69971;BME280;57301;50.328;8.542;2023-07-28T00:15:15;97674.91;;;16.06;100.00
69971;BME280;57301;50.328;8.542;2023-07-28T00:17:42;97681.75;;;16.08;100.00
69971;BME280;57301;50.328;8.542;2023-07-28T00:20:09;97679.91;;;16.02;100.00
69971;BME280;57301;50.328;8.542;2023-07-28T00:22:36;97683.19;;;16.04;100.00
69971;BME280;57301;50.328;8.542;2023-07-28T00:25:03;97673.69;;;16.08;100.00
69971;BME280;57301;50.328;8.542;2023-07-28T00:27:29;97668.50;;;16.07;100.00
69971;BME280;57301;50.328;8.542;2023-07-28T00:29:56;97669.53;;;16.12;100.00
69971;BME280;57301;50.328;8.542;2023-07-28T00:32:22;97666.00;;;16.12;100.00
69971;BME280;57301;50.328;8.542;2023-07-28T00:34:49;97653.84;;;16.03;100.00
69971;BME280;57301;50.328;8.542;2023-07-28T00:37:18;97655.25;;;16.12;100.00
69971;BME280;57301;50.328;8.542;2023-07-28T00:39:45;97658.38;;;16.16;100.00
69971;BME280;57301;50.328;8.542;2023-07-28T00:42:11;97656.91;;;16.13;100.00
69971;BME280;57301;50.328;8.542;2023-07-28T00:44:38;97647.41;;;16.04;100.00
69971;BME280;57301;50.328;8.542;2023-07-28T00:47:04;97651.13;;;16.09;100.00
69971;BME280;57301;50.328;8.542;2023-07-28T00:49:31;97658.16;;;16.17;100.00
69971;BME280;57301;50.328;8.542;2023-07-28T00:51:58;97646.78;;;16.15;100.00
69971;BME280;57301;50.328;8.542;2023-07-28T00:54:24;97661.88;;;16.16;100.00
69971;BME280;57301;50.328;8.542;2023-07-28T00:56:51;97647.78;;;16.14;100.00
69971;BME280;57301;50.328;8.542;2023-07-28T00:59:18;97658.16;;;16.17;100.00
69971;BME280;57301;50.328;8.542;2023-07-28T01:01:44;97660.88;;;16.04;100.00
69971;BME280;57301;50.328;8.542;2023-07-28T01:04:11;97661.47;;;16.12;100.00
69971;BME280;57301;50.328;8.542;2023-07-28T01:06:53;97660.44;;;16.07;100.00
69971;BME280;57301;50.328;8.542;2023-07-28T01:09:24;97658.75;;;16.12;100.00
69971;BME280;57301;50.328;8.542;2023-07-28T01:11:55;97662.09;;;16.01;100.00
69971;BME280;57301;50.328;8.542;2023-07-28T01:14:22;97661.91;;;16.03;100.00
69971;BME280;57301;50.328;8.542;2023-07-28T01:16:49;97655.69;;;16.09;100.00
69971;BME280;57301;50.328;8.542;2023-07-28T01:19:17;97652.78;;;16.10;100.00
69971;BME280;57301;50.328;8.542;2023-07-28T01:21:53;97656.47;;;16.23;100.00
69971;BME280;57301;50.328;8.542;2023-07-28T01:24:44;97644.94;;;16.09;100.00
69971;BME280;57301;50.328;8.542;2023-07-28T01:27:15;97643.47;;;16.00;100.00
69971;BME280;57301;50.328;8.542;2023-07-28T01:29:42;97638.50;;;16.10;100.00
69971;BME280;57301;50.328;8.542;2023-07-28T01:32:10;97648.84;;;16.06;100.00
69971;BME280;57301;50.328;8.542;2023-07-28T01:34:37;97639.53;;;16.16;100.00
69971;BME280;57301;50.328;8.542;2023-07-28T01:37:04;97638.69;;;16.28;100.00
69971;BME280;57301;50.328;8.542;2023-07-28T01:39:30;97636.38;;;16.32;100.00
69971;BME280;57301;50.328;8.542;2023-07-28T01:41:57;97643.63;;;16.31;100.00
69971;BME280;57301;50.328;8.542;2023-07-28T01:44:24;97640.31;;;16.36;100.00
69971;BME280;57301;50.328;8.542;2023-07-28T01:46:50;97650.25;;;16.35;100.00
69971;BME280;57301;50.328;8.542;2023-07-28T01:49:17;97641.72;;;16.38;100.00
69971;BME280;57301;50.328;8.542;2023-07-28T01:51:43;97633.88;;;16.37;100.00
69971;BME280;57301;50.328;8.542;2023-07-28T01:54:10;97646.09;;;16.39;100.00
69971;BME280;57301;50.328;8.542;2023-07-28T01:56:36;97639.88;;;16.46;100.00
69971;BME280;57301;50.328;8.542;2023-07-28T01:59:03;97643.59;;;16.38;100.00
69971;BME280;57301;50.328;8.542;2023-07-28T02:01:31;97631.22;;;16.24;100.00
69971;BME280;57301;50.328;8.542;2023-07-28T02:03:58;97632.22;;;16.36;100.00
69971;BME280;57301;50.328;8.542;2023-07-28T02:06:25;97637.63;;;16.29;100.00
69971;BME280;57301;50.328;8.542;2023-07-28T02:08:53;97641.94;;;16.37;100.00
69971;BME280;57301;50.328;8.542;2023-07-28T02:11:19;97650.88;;;16.31;100.00
69971;BME280;57301;50.328;8.542;2023-07-28T02:13:46;97640.94;;;16.31;100.00
69971;BME280;57301;50.328;8.542;2023-07-28T02:16:13;97648.34;;;16.43;100.00
69971;BME280;57301;50.328;8.542;2023-07-28T02:18:39;97646.94;;;16.40;100.00
69971;BME280;57301;50.328;8.542;2023-07-28T02:21:08;97645.91;;;16.34;100.00
69971;BME280;57301;50.328;8.542;2023-07-28T02:23:34;97652.50;;;16.45;100.00
69971;BME280;57301;50.328;8.542;2023-07-28T02:26:01;97653.31;;;16.52;100.00
69971;BME280;57301;50.328;8.542;2023-07-28T02:28:27;97642.97;;;16.43;100.00
69971;BME280;57301;50.328;8.542;2023-07-28T02:30:54;97644.00;;;16.42;100.00
69971;BME280;57301;50.328;8.542;2023-07-28T02:33:21;97646.69;;;16.42;100.00
69971;BME280;57301;50.328;8.542;2023-07-28T02:35:47;97648.56;;;16.48;100.00
69971;BME280;57301;50.328;8.542;2023-07-28T02:38:14;97648.97;;;16.45;100.00
69971;BME280;57301;50.328;8.542;2023-07-28T02:40:43;97645.06;;;16.41;100.00
69971;BME280;57301;50.328;8.542;2023-07-28T02:43:09;97641.13;;;16.36;100.00
69971;BME280;57301;50.328;8.542;2023-07-28T02:45:36;97643.78;;;16.50;100.00
69971;BME280;57301;50.328;8.542;2023-07-28T02:48:03;97648.56;;;16.41;100.00
69971;BME280;57301;50.328;8.542;2023-07-28T02:50:29;97645.88;;;16.41;100.00
69971;BME280;57301;50.328;8.542;2023-07-28T02:52:56;97660.06;;;16.68;100.00
69971;BME280;57301;50.328;8.542;2023-07-28T02:55:22;97658.63;;;16.65;100.00
69971;BME280;57301;50.328;8.542;2023-07-28T02:57:51;97658.88;;;16.57;100.00
69971;BME280;57301;50.328;8.542;2023-07-28T03:00:18;97652.66;;;16.63;100.00
69971;BME280;57301;50.328;8.542;2023-07-28T03:02:45;97648.31;;;16.49;100.00
69971;BME280;57301;50.328;8.542;2023-07-28T03:05:11;97653.09;;;16.54;100.00
69971;BME280;57301;50.328;8.542;2023-07-28T03:07:38;97651.19;;;16.61;100.00
69971;BME280;57301;50.328;8.542;2023-07-28T03:10:05;97654.13;;;16.53;100.00
69971;BME280;57301;50.328;8.542;2023-07-28T03:12:32;97653.72;;;16.49;100.00
69971;BME280;57301;50.328;8.542;2023-07-28T03:14:58;97656.19;;;16.51;100.00
69971;BME280;57301;50.328;8.542;2023-07-28T03:17:25;97658.88;;;16.51;100.00
69971;BME280;57301;50.328;8.542;2023-07-28T03:19:51;97656.81;;;16.53;100.00
69971;BME280;57301;50.328;8.542;2023-07-28T03:22:18;97648.13;;;16.44;100.00
69971;BME280;57301;50.328;8.542;2023-07-28T03:24:44;97648.78;;;16.46;100.00
69971;BME280;57301;50.328;8.542;2023-07-28T03:27:12;97648.41;;;16.23;100.00
69971;BME280;57301;50.328;8.542;2023-07-28T03:29:39;97644.31;;;15.94;100.00
69971;BME280;57301;50.328;8.542;2023-07-28T03:32:06;97644.13;;;15.82;100.00
69971;BME280;57301;50.328;8.542;2023-07-28T03:34:32;97637.72;;;15.76;100.00
69971;BME280;57301;50.328;8.542;2023-07-28T03:36:59;97635.22;;;15.75;100.00
69971;BME280;57301;50.328;8.542;2023-07-28T03:39:25;97638.53;;;15.83;100.00
69971;BME280;57301;50.328;8.542;2023-07-28T03:41:52;97651.56;;;15.87;100.00
69971;BME280;57301;50.328;8.542;2023-07-28T03:44:18;97645.75;;;15.90;100.00
69971;BME280;57301;50.328;8.542;2023-07-28T03:46:45;97645.78;;;15.96;100.00
69971;BME280;57301;50.328;8.542;2023-07-28T03:49:13;97646.19;;;15.93;100.00
69971;BME280;57301;50.328;8.542;2023-07-28T03:51:39;97648.88;;;15.87;100.00
69971;BME280;57301;50.328;8.542;2023-07-28T03:54:06;97649.91;;;15.92;100.00
69971;BME280;57301;50.328;8.542;2023-07-28T03:56:32;97645.13;;;15.94;100.00
69971;BME280;57301;50.328;8.542;2023-07-28T03:59:00;97653.81;;;15.90;100.00
69971;BME280;57301;50.328;8.542;2023-07-28T04:01:27;97656.13;;;15.73;100.00
69971;BME280;57301;50.328;8.542;2023-07-28T04:03:53;97658.19;;;15.64;100.00
69971;BME280;57301;50.328;8.542;2023-07-28T04:06:42;97663.94;;;15.61;100.00
69971;BME280;57301;50.328;8.542;2023-07-28T04:09:11;97657.56;;;15.69;100.00
69971;BME280;57301;50.328;8.542;2023-07-28T04:11:38;97656.53;;;15.70;100.00
69971;BME280;57301;50.328;8.542;2023-07-28T04:14:05;97662.13;;;15.68;100.00
69971;BME280;57301;50.328;8.542;2023-07-28T04:16:33;97663.38;;;15.66;100.00
69971;BME280;57301;50.328;8.542;2023-07-28T04:19:00;97670.78;;;15.77;100.00
69971;BME280;57301;50.328;8.542;2023-07-28T04:21:27;97669.97;;;16.03;100.00
69971;BME280;57301;50.328;8.542;2023-07-28T04:23:53;97670.34;;;16.13;100.00
69971;BME280;57301;50.328;8.542;2023-07-28T04:26:20;97672.84;;;16.01;100.00
69971;BME280;57301;50.328;8.542;2023-07-28T04:28:46;97679.06;;;16.02;100.00
69971;BME280;57301;50.328;8.542;2023-07-28T04:31:13;97681.31;;;16.11;100.00
69971;BME280;57301;50.328;8.542;2023-07-28T04:33:42;97685.28;;;16.02;100.00
69971;BME280;57301;50.328;8.542;2023-07-28T04:36:09;97676.56;;;16.07;100.00
69971;BME280;57301;50.328;8.542;2023-07-28T04:38:36;97689.19;;;16.06;100.00
69971;BME280;57301;50.328;8.542;2023-07-28T04:41:02;97684.00;;;16.18;100.00
69971;BME280;57301;50.328;8.542;2023-07-28T04:43:29;97690.22;;;16.12;100.00
69971;BME280;57301;50.328;8.542;2023-07-28T04:45:55;97694.28;;;16.54;100.00
69971;BME280;57301;50.328;8.542;2023-07-28T04:48:22;97700.09;;;16.58;100.00
69971;BME280;57301;50.328;8.542;2023-07-28T04:50:48;97690.81;;;16.34;100.00
69971;BME280;57301;50.328;8.542;2023-07-28T04:53:15;97696.56;;;16.44;100.00
69971;BME280;57301;50.328;8.542;2023-07-28T04:55:41;97701.34;;;16.49;100.00
69971;BME280;57301;50.328;8.542;2023-07-28T04:58:07;97709.38;;;16.62;100.00
69971;BME280;57301;50.328;8.542;2023-07-28T05:00:34;97709.78;;;16.65;100.00
69971;BME280;57301;50.328;8.542;2023-07-28T05:03:00;97705.44;;;16.71;100.00
69971;BME280;57301;50.328;8.542;2023-07-28T05:05:29;97705.19;;;16.86;100.00
69971;BME280;57301;50.328;8.542;2023-07-28T05:07:55;97707.66;;;16.87;100.00
69971;BME280;57301;50.328;8.542;2023-07-28T05:10:22;97715.31;;;16.90;100.00
69971;BME280;57301;50.328;8.542;2023-07-28T05:12:48;97710.75;;;16.91;100.00
69971;BME280;57301;50.328;8.542;2023-07-28T05:15:15;97714.44;;;17.03;100.00
69971;BME280;57301;50.328;8.542;2023-07-28T05:17:41;97719.19;;;17.08;100.00
69971;BME280;57301;50.328;8.542;2023-07-28T05:20:08;97730.13;;;17.19;100.00
69971;BME280;57301;50.328;8.542;2023-07-28T05:22:39;97720.59;;;17.17;100.00
69971;BME280;57301;50.328;8.542;2023-07-28T05:25:20;97730.50;;;17.23;100.00
69971;BME280;57301;50.328;8.542;2023-07-28T05:31:06;97721.31;;;17.37;100.00
69971;BME280;57301;50.328;8.542;2023-07-28T05:33:33;97717.38;;;17.40;100.00
69971;BME280;57301;50.328;8.542;2023-07-28T05:36:04;97720.47;;;17.43;100.00
69971;BME280;57301;50.328;8.542;2023-07-28T05:38:38;97707.19;;;17.42;100.00
69971;BME280;57301;50.328;8.542;2023-07-28T05:41:07;97713.44;;;17.36;100.00
69971;BME280;57301;50.328;8.542;2023-07-28T05:43:38;97704.25;;;17.50;100.00
69971;BME280;57301;50.328;8.542;2023-07-28T05:46:07;97707.94;;;17.56;99.56
69971;BME280;57301;50.328;8.542;2023-07-28T05:48:48;97712.28;;;17.57;98.70
69971;BME280;57301;50.328;8.542;2023-07-28T05:52:00;97712.00;;;17.71;98.95
69971;BME280;57301;50.328;8.542;2023-07-28T05:54:35;97714.88;;;17.70;98.57
69971;BME280;57301;50.328;8.542;2023-07-28T05:57:01;97712.81;;;17.72;97.75
69971;BME280;57301;50.328;8.542;2023-07-28T05:59:28;97724.13;;;17.87;97.33
69971;BME280;57301;50.328;8.542;2023-07-28T06:01:58;97721.75;;;17.97;96.65
69971;BME280;57301;50.328;8.542;2023-07-28T06:04:34;97717.16;;;18.05;96.29
69971;BME280;57301;50.328;8.542;2023-07-28T06:07:09;97722.56;;;18.05;95.93
69971;BME280;57301;50.328;8.542;2023-07-28T06:09:36;97720.13;;;18.40;94.70
69971;BME280;57301;50.328;8.542;2023-07-28T06:12:05;97719.19;;;18.52;92.95
69971;BME280;57301;50.328;8.542;2023-07-28T06:14:32;97722.59;;;18.41;94.71
69971;BME280;57301;50.328;8.542;2023-07-28T06:16:59;97730.03;;;18.46;92.54
69971;BME280;57301;50.328;8.542;2023-07-28T06:19:31;97725.00;;;18.74;90.80
69971;BME280;57301;50.328;8.542;2023-07-28T06:22:19;97729.13;;;18.77;90.24
69971;BME280;57301;50.328;8.542;2023-07-28T06:24:46;97718.94;;;18.79;90.03
69971;BME280;57301;50.328;8.542;2023-07-28T06:27:12;97731.47;;;18.92;90.18
69971;BME280;57301;50.328;8.542;2023-07-28T06:29:45;97726.50;;;18.89;89.37
69971;BME280;57301;50.328;8.542;2023-07-28T06:32:12;97728.06;;;18.96;89.56
69971;BME280;57301;50.328;8.542;2023-07-28T06:34:39;97722.16;;;18.88;89.41
69971;BME280;57301;50.328;8.542;2023-07-28T06:37:08;97731.59;;;19.15;87.85
69971;BME280;57301;50.328;8.542;2023-07-28T06:39:35;97734.41;;;19.39;86.81
69971;BME280;57301;50.328;8.542;2023-07-28T06:42:04;97731.44;;;19.28;86.58
69971;BME280;57301;50.328;8.542;2023-07-28T06:44:33;97740.44;;;19.22;87.10
69971;BME280;57301;50.328;8.542;2023-07-28T06:47:02;97734.72;;;19.30;87.51
69971;BME280;57301;50.328;8.542;2023-07-28T06:49:29;97739.34;;;19.12;87.51
69971;BME280;57301;50.328;8.542;2023-07-28T06:52:02;97741.91;;;19.37;86.11
69971;BME280;57301;50.328;8.542;2023-07-28T06:54:30;97746.69;;;19.71;85.08
69971;BME280;57301;50.328;8.542;2023-07-28T06:56:57;97745.88;;;19.52;85.67
69971;BME280;57301;50.328;8.542;2023-07-28T06:59:23;97755.53;;;19.30;86.49
69971;BME280;57301;50.328;8.542;2023-07-28T07:02:02;97756.84;;;19.39;85.97
69971;BME280;57301;50.328;8.542;2023-07-28T07:04:53;97758.34;;;19.53;85.54
69971;BME280;57301;50.328;8.542;2023-07-28T07:07:28;97758.75;;;19.20;86.44
69971;BME280;57301;50.328;8.542;2023-07-28T07:09:57;97761.22;;;19.58;85.51
69971;BME280;57301;50.328;8.542;2023-07-28T07:12:35;97770.06;;;19.47;85.35
69971;BME280;57301;50.328;8.542;2023-07-28T07:15:09;97769.59;;;19.50;86.52
69971;BME280;57301;50.328;8.542;2023-07-28T07:17:40;97774.75;;;19.40;86.26
69971;BME280;57301;50.328;8.542;2023-07-28T07:20:30;97777.13;;;19.67;84.82
69971;BME280;57301;50.328;8.542;2023-07-28T07:23:00;97781.72;;;19.48;85.44
69971;BME280;57301;50.328;8.542;2023-07-28T07:25:40;97780.84;;;19.84;84.55
69971;BME280;57301;50.328;8.542;2023-07-28T07:28:13;97772.19;;;19.27;87.02
69971;BME280;57301;50.328;8.542;2023-07-28T07:30:40;97776.34;;;19.29;86.75
69971;BME280;57301;50.328;8.542;2023-07-28T07:33:06;97779.91;;;19.42;86.44
69971;BME280;57301;50.328;8.542;2023-07-28T07:35:37;97780.41;;;19.69;85.39
69971;BME280;57301;50.328;8.542;2023-07-28T07:38:04;97776.94;;;19.80;85.62
69971;BME280;57301;50.328;8.542;2023-07-28T07:40:35;97781.09;;;19.64;84.30
69971;BME280;57301;50.328;8.542;2023-07-28T07:43:03;97792.19;;;19.74;85.28
69971;BME280;57301;50.328;8.542;2023-07-28T07:45:30;97786.44;;;19.71;84.91
69971;BME280;57301;50.328;8.542;2023-07-28T07:47:58;97793.34;;;19.48;85.84
69971;BME280;57301;50.328;8.542;2023-07-28T07:50:25;97795.22;;;19.48;85.50
69971;BME280;57301;50.328;8.542;2023-07-28T07:52:51;97794.03;;;19.62;83.43
69971;BME280;57301;50.328;8.542;2023-07-28T07:55:18;97798.66;;;19.73;84.26
69971;BME280;57301;50.328;8.542;2023-07-28T07:57:44;97806.97;;;19.90;83.20
69971;BME280;57301;50.328;8.542;2023-07-28T08:00:11;97802.97;;;19.63;84.28
69971;BME280;57301;50.328;8.542;2023-07-28T08:02:38;97800.25;;;19.93;84.02
69971;BME280;57301;50.328;8.542;2023-07-28T08:05:05;97805.19;;;20.26;83.28
69971;BME280;57301;50.328;8.542;2023-07-28T08:07:32;97809.56;;;20.38;81.54
69971;BME280;57301;50.328;8.542;2023-07-28T08:09:58;97809.13;;;20.53;80.97
69971;BME280;57301;50.328;8.542;2023-07-28T08:12:28;97811.53;;;20.31;81.92
69971;BME280;57301;50.328;8.542;2023-07-28T08:14:55;97817.72;;;20.74;80.85
69971;BME280;57301;50.328;8.542;2023-07-28T08:17:22;97816.53;;;20.93;80.02
69971;BME280;57301;50.328;8.542;2023-07-28T08:19:52;97826.34;;;20.59;81.12
69971;BME280;57301;50.328;8.542;2023-07-28T08:22:19;97819.16;;;20.64;80.56
69971;BME280;57301;50.328;8.542;2023-07-28T08:24:48;97822.13;;;20.75;79.91
69971;BME280;57301;50.328;8.542;2023-07-28T08:27:15;97818.31;;;20.64;80.60
69971;BME280;57301;50.328;8.542;2023-07-28T08:29:41;97821.88;;;20.88;79.76
69971;BME280;57301;50.328;8.542;2023-07-28T08:35:29;97827.50;;;20.86;80.72
69971;BME280;57301;50.328;8.542;2023-07-28T08:37:55;97822.09;;;20.86;80.14
69971;BME280;57301;50.328;8.542;2023-07-28T08:40:22;97833.28;;;20.66;80.49
69971;BME280;57301;50.328;8.542;2023-07-28T08:42:54;97829.88;;;20.71;81.84
69971;BME280;57301;50.328;8.542;2023-07-28T08:45:40;97838.31;;;21.22;80.57
69971;BME280;57301;50.328;8.542;2023-07-28T08:48:20;97835.03;;;21.43;78.67
69971;BME280;57301;50.328;8.542;2023-07-28T08:50:49;97836.47;;;21.74;77.73
69971;BME280;57301;50.328;8.542;2023-07-28T08:53:18;97844.72;;;20.92;81.03
69971;BME280;57301;50.328;8.542;2023-07-28T08:55:54;97842.69;;;21.11;81.85
69971;BME280;57301;50.328;8.542;2023-07-28T08:58:32;97846.03;;;20.89;81.90
69971;BME280;57301;50.328;8.542;2023-07-28T09:04:16;97850.50;;;20.96;82.54
69971;BME280;57301;50.328;8.542;2023-07-28T09:06:47;97843.25;;;21.48;80.09
69971;BME280;57301;50.328;8.542;2023-07-28T09:09:14;97844.09;;;22.17;77.13
69971;BME280;57301;50.328;8.542;2023-07-28T09:11:51;97846.78;;;22.79;73.97
69971;BME280;57301;50.328;8.542;2023-07-28T09:14:25;97853.09;;;22.06;76.00
69971;BME280;57301;50.328;8.542;2023-07-28T09:17:32;97853.25;;;21.99;75.53
69971;BME280;57301;50.328;8.542;2023-07-28T09:20:16;97844.31;;;21.47;76.33
69971;BME280;57301;50.328;8.542;2023-07-28T09:22:53;97843.94;;;21.67;75.83
69971;BME280;57301;50.328;8.542;2023-07-28T09:25:37;97851.13;;;21.73;77.00
69971;BME280;57301;50.328;8.542;2023-07-28T09:28:09;97852.50;;;21.76;77.45
69971;BME280;57301;50.328;8.542;2023-07-28T09:30:48;97854.22;;;21.93;76.52
69971;BME280;57301;50.328;8.542;2023-07-28T09:33:32;97854.19;;;22.50;75.27
69971;BME280;57301;50.328;8.542;2023-07-28T09:36:12;97851.06;;;22.75;73.74
69971;BME280;57301;50.328;8.542;2023-07-28T09:38:40;97851.81;;;23.04;71.91
69971;BME280;57301;50.328;8.542;2023-07-28T09:41:10;97855.22;;;22.33;73.52
69971;BME280;57301;50.328;8.542;2023-07-28T09:43:39;97846.78;;;22.63;72.96
69971;BME280;57301;50.328;8.542;2023-07-28T09:46:09;97843.66;;;23.04;71.32
69971;BME280;57301;50.328;8.542;2023-07-28T09:48:38;97854.53;;;22.88;71.80
69971;BME280;57301;50.328;8.542;2023-07-28T09:51:12;97848.19;;;22.99;69.72
69971;BME280;57301;50.328;8.542;2023-07-28T09:53:46;97848.03;;;22.72;71.71
69971;BME280;57301;50.328;8.542;2023-07-28T09:56:15;97855.09;;;22.73;72.00
69971;BME280;57301;50.328;8.542;2023-07-28T09:58:49;97860.59;;;23.12;70.58
69971;BME280;57301;50.328;8.542;2023-07-28T10:01:16;97850.06;;;23.15;70.20
69971;BME280;57301;50.328;8.542;2023-07-28T10:03:43;97850.91;;;23.38;69.16
69971;BME280;57301;50.328;8.542;2023-07-28T10:06:11;97854.72;;;23.58;67.67
69971;BME280;57301;50.328;8.542;2023-07-28T10:08:41;97852.13;;;24.18;67.86
69971;BME280;57301;50.328;8.542;2023-07-28T10:11:09;97853.28;;;24.22;66.41
69971;BME280;57301;50.328;8.542;2023-07-28T10:13:40;97852.63;;;23.88;66.40
69971;BME280;57301;50.328;8.542;2023-07-28T10:16:16;97852.06;;;24.07;66.46
69971;BME280;57301;50.328;8.542;2023-07-28T10:19:01;97854.72;;;23.58;65.74
69971;BME280;57301;50.328;8.542;2023-07-28T10:21:29;97859.34;;;23.80;65.07
69971;BME280;57301;50.328;8.542;2023-07-28T10:23:58;97855.94;;;23.68;66.89
69971;BME280;57301;50.328;8.542;2023-07-28T10:26:31;97850.22;;;23.91;65.49
69971;BME280;57301;50.328;8.542;2023-07-28T10:29:08;97856.63;;;23.80;66.68
69971;BME280;57301;50.328;8.542;2023-07-28T10:31:36;97858.97;;;23.93;65.20
69971;BME280;57301;50.328;8.542;2023-07-28T10:34:05;97859.75;;;24.16;64.98
69971;BME280;57301;50.328;8.542;2023-07-28T10:36:33;97865.59;;;23.58;66.29
69971;BME280;57301;50.328;8.542;2023-07-28T10:41:30;97872.88;;;23.53;66.50
69971;BME280;57301;50.328;8.542;2023-07-28T10:44:01;97873.13;;;23.13;67.12
69971;BME280;57301;50.328;8.542;2023-07-28T10:46:28;97866.03;;;23.50;65.73
69971;BME280;57301;50.328;8.542;2023-07-28T10:48:55;97863.13;;;23.57;65.96
69971;BME280;57301;50.328;8.542;2023-07-28T10:51:23;97860.97;;;24.03;65.26
69971;BME280;57301;50.328;8.542;2023-07-28T10:54:00;97858.00;;;24.31;64.80
69971;BME280;57301;50.328;8.542;2023-07-28T10:56:29;97868.66;;;23.62;65.40
69971;BME280;57301;50.328;8.542;2023-07-28T10:59:03;97873.63;;;24.14;64.57
69971;BME280;57301;50.328;8.542;2023-07-28T11:01:38;97863.06;;;24.45;63.56
69971;BME280;57301;50.328;8.542;2023-07-28T11:04:15;97864.31;;;24.10;63.77
69971;BME280;57301;50.328;8.542;2023-07-28T11:06:44;97862.28;;;23.73;64.40
69971;BME280;57301;50.328;8.542;2023-07-28T11:09:12;97872.50;;;23.05;65.83
69971;BME280;57301;50.328;8.542;2023-07-28T11:11:39;97860.31;;;23.91;64.90
69971;BME280;57301;50.328;8.542;2023-07-28T11:14:09;97867.44;;;24.78;62.67
69971;BME280;57301;50.328;8.542;2023-07-28T11:16:37;97862.09;;;24.61;61.79
69971;BME280;57301;50.328;8.542;2023-07-28T11:19:10;97865.69;;;24.66;62.40
69971;BME280;57301;50.328;8.542;2023-07-28T11:21:38;97865.47;;;24.41;63.55
69971;BME280;57301;50.328;8.542;2023-07-28T11:24:06;97861.69;;;24.74;62.93
69971;BME280;57301;50.328;8.542;2023-07-28T11:26:35;97869.84;;;24.15;63.58
69971;BME280;57301;50.328;8.542;2023-07-28T11:29:04;97859.16;;;24.35;64.81
69971;BME280;57301;50.328;8.542;2023-07-28T11:31:30;97862.56;;;23.99;64.26
69971;BME280;57301;50.328;8.542;2023-07-28T11:33:57;97867.31;;;24.08;64.70
69971;BME280;57301;50.328;8.542;2023-07-28T11:36:24;97860.72;;;24.04;63.98
69971;BME280;57301;50.328;8.542;2023-07-28T11:38:52;97875.63;;;23.97;64.72
69971;BME280;57301;50.328;8.542;2023-07-28T11:41:20;97867.78;;;24.00;64.09
69971;BME280;57301;50.328;8.542;2023-07-28T11:43:48;97870.53;;;24.05;63.62
69971;BME280;57301;50.328;8.542;2023-07-28T11:46:38;97866.84;;;23.90;65.08
69971;BME280;57301;50.328;8.542;2023-07-28T11:49:19;97865.00;;;23.95;65.07
69971;BME280;57301;50.328;8.542;2023-07-28T11:51:50;97862.69;;;24.36;64.40
69971;BME280;57301;50.328;8.542;2023-07-28T11:54:20;97874.19;;;24.70;63.24
69971;BME280;57301;50.328;8.542;2023-07-28T11:56:50;97869.22;;;24.62;61.15
69971;BME280;57301;50.328;8.542;2023-07-28T11:59:19;97872.59;;;23.71;65.51
69971;BME280;57301;50.328;8.542;2023-07-28T12:01:59;97863.84;;;24.18;63.88
69971;BME280;57301;50.328;8.542;2023-07-28T12:04:30;97870.91;;;24.68;63.10
69971;BME280;57301;50.328;8.542;2023-07-28T12:12:13;97860.50;;;24.65;62.46
69971;BME280;57301;50.328;8.542;2023-07-28T12:14:51;97865.88;;;24.28;61.51
69971;BME280;57301;50.328;8.542;2023-07-28T12:17:50;97858.56;;;24.92;59.47
69971;BME280;57301;50.328;8.542;2023-07-28T12:21:03;97860.75;;;24.96;59.95
69971;BME280;57301;50.328;8.542;2023-07-28T12:23:56;97856.63;;;24.88;59.42
69971;BME280;57301;50.328;8.542;2023-07-28T12:26:25;97863.47;;;24.96;58.71
69971;BME280;57301;50.328;8.542;2023-07-28T12:28:52;97863.09;;;24.23;60.62
69971;BME280;57301;50.328;8.542;2023-07-28T12:31:19;97858.72;;;24.22;61.87
69971;BME280;57301;50.328;8.542;2023-07-28T12:33:49;97859.28;;;24.24;62.05
69971;BME280;57301;50.328;8.542;2023-07-28T12:36:27;97856.03;;;24.00;62.66
69971;BME280;57301;50.328;8.542;2023-07-28T12:43:14;97856.03;;;24.81;60.45
69971;BME280;57301;50.328;8.542;2023-07-28T12:45:54;97861.13;;;25.52;59.77
69971;BME280;57301;50.328;8.542;2023-07-28T12:48:38;97851.56;;;25.49;58.54
69971;BME280;57301;50.328;8.542;2023-07-28T12:51:40;97861.72;;;24.47;60.94
69971;BME280;57301;50.328;8.542;2023-07-28T12:54:32;97858.00;;;24.58;60.67
69971;BME280;57301;50.328;8.542;2023-07-28T13:01:10;97860.47;;;25.29;59.77
69971;BME280;57301;50.328;8.542;2023-07-28T13:04:22;97866.22;;;25.33;59.25
69971;BME280;57301;50.328;8.542;2023-07-28T13:07:04;97868.94;;;25.85;58.22
69971;BME280;57301;50.328;8.542;2023-07-28T13:09:33;97857.56;;;26.09;57.14
69971;BME280;57301;50.328;8.542;2023-07-28T13:12:24;97863.34;;;25.60;59.88
69971;BME280;57301;50.328;8.542;2023-07-28T13:15:16;97860.16;;;25.73;58.49
69971;BME280;57301;50.328;8.542;2023-07-28T13:17:52;97872.47;;;25.33;60.49
69971;BME280;57301;50.328;8.542;2023-07-28T13:20:44;97867.84;;;25.81;60.61
69971;BME280;57301;50.328;8.542;2023-07-28T13:23:25;97867.59;;;24.98;61.43
69971;BME280;57301;50.328;8.542;2023-07-28T13:26:20;97871.28;;;25.14;62.52
69971;BME280;57301;50.328;8.542;2023-07-28T13:29:10;97865.09;;;24.59;64.44
69971;BME280;57301;50.328;8.542;2023-07-28T13:31:37;97858.44;;;24.45;64.15
69971;BME280;57301;50.328;8.542;2023-07-28T13:34:30;97860.47;;;24.97;63.50
69971;BME280;57301;50.328;8.542;2023-07-28T13:37:31;97867.16;;;25.59;60.10
69971;BME280;57301;50.328;8.542;2023-07-28T13:40:20;97855.75;;;25.72;59.47